sensor_id;sensor_type;location;lat;lon;timestamp;temperature;humidity
19437;DHT22;9854;50.968;4.168;2022-09-21T00:00:38;11.20;99.90
19437;DHT22;9854;50.968;4.168;2022-09-21T00:03:05;11.10;99.90
19437;DHT22;9854;50.968;4.168;2022-09-21T00:05:32;11.00;99.90
19437;DHT22;9854;50.968;4.168;2022-09-21T00:08:02;11.00;99.90
19437;DHT22;9854;50.968;4.168;2022-09-21T00:10:28;10.90;99.90
19437;DHT22;9854;50.968;4.168;2022-09-21T00:12:55;10.90;99.90
19437;DHT22;9854;50.968;4.168;2022-09-21T00:15:21;10.90;99.90
19437;DHT22;9854;50.968;4.168;2022-09-21T00:17:47;10.90;99.90
19437;DHT22;9854;50.968;4.168;2022-09-21T00:20:16;10.90;99.90
19437;DHT22;9854;50.968;4.168;2022-09-21T00:22:42;10.90;99.90
19437;DHT22;9854;50.968;4.168;2022-09-21T00:25:09;10.90;99.90
19437;DHT22;9854;50.968;4.168;2022-09-21T00:27:35;10.90;99.90
19437;DHT22;9854;50.968;4.168;2022-09-21T00:30:01;10.90;99.90
19437;DHT22;9854;50.968;4.168;2022-09-21T00:32:29;10.90;99.90
19437;DHT22;9854;50.968;4.168;2022-09-21T00:34:59;10.80;99.90
19437;DHT22;9854;50.968;4.168;2022-09-21T00:37:26;10.90;99.90
19437;DHT22;9854;50.968;4.168;2022-09-21T00:39:52;10.90;99.90
19437;DHT22;9854;50.968;4.168;2022-09-21T00:42:27;10.80;99.90
19437;DHT22;9854;50.968;4.168;2022-09-21T00:44:53;10.80;99.90
19437;DHT22;9854;50.968;4.168;2022-09-21T00:47:25;10.80;99.90
19437;DHT22;9854;50.968;4.168;2022-09-21T00:49:53;10.80;99.90
19437;DHT22;9854;50.968;4.168;2022-09-21T00:52:22;10.90;99.90
19437;DHT22;9854;50.968;4.168;2022-09-21T00:57:57;10.80;99.90
19437;DHT22;9854;50.968;4.168;2022-09-21T01:00:24;10.70;99.90
19437;DHT22;9854;50.968;4.168;2022-09-21T01:02:50;10.70;99.90
19437;DHT22;9854;50.968;4.168;2022-09-21T01:05:17;10.60;99.90
19437;DHT22;9854;50.968;4.168;2022-09-21T01:07:45;10.50;99.90
19437;DHT22;9854;50.968;4.168;2022-09-21T01:10:14;10.50;99.90
19437;DHT22;9854;50.968;4.168;2022-09-21T01:13:03;10.50;99.90
19437;DHT22;9854;50.968;4.168;2022-09-21T01:18:24;10.40;99.90
19437;DHT22;9854;50.968;4.168;2022-09-21T01:21:54;10.40;99.90
19437;DHT22;9854;50.968;4.168;2022-09-21T01:24:20;10.40;99.90
19437;DHT22;9854;50.968;4.168;2022-09-21T01:32:19;10.40;99.90
19437;DHT22;9854;50.968;4.168;2022-09-21T01:35:00;10.60;99.90
19437;DHT22;9854;50.968;4.168;2022-09-21T01:37:37;10.60;99.90
19437;DHT22;9854;50.968;4.168;2022-09-21T01:40:11;10.50;99.90
19437;DHT22;9854;50.968;4.168;2022-09-21T01:42:39;10.40;99.90
19437;DHT22;9854;50.968;4.168;2022-09-21T01:45:07;10.40;99.90
19437;DHT22;9854;50.968;4.168;2022-09-21T01:47:35;10.40;99.90
19437;DHT22;9854;50.968;4.168;2022-09-21T01:50:05;10.40;99.90
19437;DHT22;9854;50.968;4.168;2022-09-21T01:52:42;10.60;99.90
19437;DHT22;9854;50.968;4.168;2022-09-21T01:55:20;10.70;99.90
19437;DHT22;9854;50.968;4.168;2022-09-21T02:00:23;10.50;99.90
19437;DHT22;9854;50.968;4.168;2022-09-21T02:02:51;10.40;99.90
19437;DHT22;9854;50.968;4.168;2022-09-21T02:05:21;10.30;99.90
19437;DHT22;9854;50.968;4.168;2022-09-21T02:07:49;10.30;99.90
19437;DHT22;9854;50.968;4.168;2022-09-21T02:10:49;10.30;99.90
19437;DHT22;9854;50.968;4.168;2022-09-21T02:13:14;10.30;99.90
19437;DHT22;9854;50.968;4.168;2022-09-21T02:21:31;10.20;99.90
19437;DHT22;9854;50.968;4.168;2022-09-21T02:24:32;10.00;99.90
19437;DHT22;9854;50.968;4.168;2022-09-21T02:27:04;10.00;99.90
19437;DHT22;9854;50.968;4.168;2022-09-21T02:32:08;10.00;99.90
19437;DHT22;9854;50.968;4.168;2022-09-21T02:34:49;10.00;99.90
19437;DHT22;9854;50.968;4.168;2022-09-21T02:37:21;10.00;99.90
19437;DHT22;9854;50.968;4.168;2022-09-21T02:40:06;10.30;99.90
19437;DHT22;9854;50.968;4.168;2022-09-21T02:42:38;10.30;99.90
19437;DHT22;9854;50.968;4.168;2022-09-21T02:45:12;10.10;99.90
19437;DHT22;9854;50.968;4.168;2022-09-21T02:48:04;10.00;99.90
19437;DHT22;9854;50.968;4.168;2022-09-21T02:53:10;10.10;99.90
19437;DHT22;9854;50.968;4.168;2022-09-21T02:55:36;10.10;99.90
19437;DHT22;9854;50.968;4.168;2022-09-21T02:58:05;10.40;99.90
19437;DHT22;9854;50.968;4.168;2022-09-21T03:00:34;10.60;99.90
19437;DHT22;9854;50.968;4.168;2022-09-21T03:03:00;10.60;99.90
19437;DHT22;9854;50.968;4.168;2022-09-21T03:05:38;10.50;99.90
19437;DHT22;9854;50.968;4.168;2022-09-21T03:08:04;10.20;99.90
19437;DHT22;9854;50.968;4.168;2022-09-21T03:10:31;10.10;99.90
19437;DHT22;9854;50.968;4.168;2022-09-21T03:12:56;10.00;99.90
19437;DHT22;9854;50.968;4.168;2022-09-21T03:15:23;10.00;99.90
19437;DHT22;9854;50.968;4.168;2022-09-21T03:17:50;10.00;99.90
19437;DHT22;9854;50.968;4.168;2022-09-21T03:20:16;10.10;99.90
19437;DHT22;9854;50.968;4.168;2022-09-21T03:22:41;10.20;99.90
19437;DHT22;9854;50.968;4.168;2022-09-21T03:25:07;10.20;99.90
19437;DHT22;9854;50.968;4.168;2022-09-21T03:27:37;10.20;99.90
19437;DHT22;9854;50.968;4.168;2022-09-21T03:30:03;10.00;99.90
19437;DHT22;9854;50.968;4.168;2022-09-21T03:32:29;10.00;99.90
19437;DHT22;9854;50.968;4.168;2022-09-21T03:34:54;10.00;99.90
19437;DHT22;9854;50.968;4.168;2022-09-21T03:37:20;10.10;99.90
19437;DHT22;9854;50.968;4.168;2022-09-21T03:39:45;10.00;99.90
19437;DHT22;9854;50.968;4.168;2022-09-21T03:42:12;9.90;99.90
19437;DHT22;9854;50.968;4.168;2022-09-21T03:44:38;9.90;99.90
19437;DHT22;9854;50.968;4.168;2022-09-21T03:47:05;10.00;99.90
19437;DHT22;9854;50.968;4.168;2022-09-21T03:49:32;10.10;99.90
19437;DHT22;9854;50.968;4.168;2022-09-21T03:51:59;10.10;99.90
19437;DHT22;9854;50.968;4.168;2022-09-21T03:54:25;10.10;99.90
19437;DHT22;9854;50.968;4.168;2022-09-21T03:56:51;9.90;99.90
19437;DHT22;9854;50.968;4.168;2022-09-21T03:59:16;9.80;99.90
19437;DHT22;9854;50.968;4.168;2022-09-21T04:01:42;9.80;99.90
19437;DHT22;9854;50.968;4.168;2022-09-21T04:04:08;10.00;99.90
19437;DHT22;9854;50.968;4.168;2022-09-21T04:06:35;10.10;99.90
19437;DHT22;9854;50.968;4.168;2022-09-21T04:09:00;10.10;99.90
19437;DHT22;9854;50.968;4.168;2022-09-21T04:11:27;9.90;99.90
19437;DHT22;9854;50.968;4.168;2022-09-21T04:13:53;9.70;99.90
19437;DHT22;9854;50.968;4.168;2022-09-21T04:16:25;9.50;99.90
19437;DHT22;9854;50.968;4.168;2022-09-21T04:18:52;9.50;99.90
19437;DHT22;9854;50.968;4.168;2022-09-21T04:21:19;9.50;99.90
19437;DHT22;9854;50.968;4.168;2022-09-21T04:23:46;9.50;99.90
19437;DHT22;9854;50.968;4.168;2022-09-21T04:26:20;9.50;99.90
19437;DHT22;9854;50.968;4.168;2022-09-21T04:28:46;9.50;99.90
19437;DHT22;9854;50.968;4.168;2022-09-21T04:31:11;9.40;99.90
19437;DHT22;9854;50.968;4.168;2022-09-21T04:33:37;9.60;99.90
19437;DHT22;9854;50.968;4.168;2022-09-21T04:36:03;9.80;99.90
19437;DHT22;9854;50.968;4.168;2022-09-21T04:38:30;9.80;99.90
19437;DHT22;9854;50.968;4.168;2022-09-21T04:40:56;9.80;99.90
19437;DHT22;9854;50.968;4.168;2022-09-21T04:43:22;9.70;99.90
19437;DHT22;9854;50.968;4.168;2022-09-21T04:45:48;9.60;99.90
19437;DHT22;9854;50.968;4.168;2022-09-21T04:48:13;9.70;99.90
19437;DHT22;9854;50.968;4.168;2022-09-21T04:50:39;9.70;99.90
19437;DHT22;9854;50.968;4.168;2022-09-21T04:53:05;9.90;99.90
19437;DHT22;9854;50.968;4.168;2022-09-21T04:55:31;9.80;99.90
19437;DHT22;9854;50.968;4.168;2022-09-21T04:57:56;9.70;99.90
19437;DHT22;9854;50.968;4.168;2022-09-21T05:00:22;9.50;99.90
19437;DHT22;9854;50.968;4.168;2022-09-21T05:02:48;9.50;99.90
19437;DHT22;9854;50.968;4.168;2022-09-21T05:05:13;9.40;99.90
19437;DHT22;9854;50.968;4.168;2022-09-21T05:07:39;9.50;99.90
19437;DHT22;9854;50.968;4.168;2022-09-21T05:10:05;9.70;99.90
19437;DHT22;9854;50.968;4.168;2022-09-21T05:12:32;9.70;99.90
19437;DHT22;9854;50.968;4.168;2022-09-21T05:14:58;9.80;99.90
19437;DHT22;9854;50.968;4.168;2022-09-21T05:17:24;9.70;99.90
19437;DHT22;9854;50.968;4.168;2022-09-21T05:19:50;9.80;99.90
19437;DHT22;9854;50.968;4.168;2022-09-21T05:22:18;9.70;99.90
19437;DHT22;9854;50.968;4.168;2022-09-21T05:24:44;9.90;99.90
19437;DHT22;9854;50.968;4.168;2022-09-21T05:27:11;10.10;99.90
19437;DHT22;9854;50.968;4.168;2022-09-21T05:29:38;10.00;99.90
19437;DHT22;9854;50.968;4.168;2022-09-21T05:39:54;9.80;99.90
19437;DHT22;9854;50.968;4.168;2022-09-21T05:42:20;10.10;99.90
19437;DHT22;9854;50.968;4.168;2022-09-21T05:44:46;10.40;99.90
19437;DHT22;9854;50.968;4.168;2022-09-21T05:47:43;10.70;99.90
19437;DHT22;9854;50.968;4.168;2022-09-21T05:55:45;9.90;99.90
19437;DHT22;9854;50.968;4.168;2022-09-21T06:01:03;9.90;99.90
19437;DHT22;9854;50.968;4.168;2022-09-21T06:03:34;10.20;99.90
19437;DHT22;9854;50.968;4.168;2022-09-21T06:06:01;10.30;99.90
19437;DHT22;9854;50.968;4.168;2022-09-21T06:08:27;10.30;99.90
19437;DHT22;9854;50.968;4.168;2022-09-21T06:10:53;10.40;99.90
19437;DHT22;9854;50.968;4.168;2022-09-21T06:13:19;10.50;99.90
19437;DHT22;9854;50.968;4.168;2022-09-21T06:15:45;10.40;99.90
19437;DHT22;9854;50.968;4.168;2022-09-21T06:18:10;10.10;99.90
19437;DHT22;9854;50.968;4.168;2022-09-21T06:20:36;10.00;99.90
19437;DHT22;9854;50.968;4.168;2022-09-21T06:23:07;10.00;99.90
19437;DHT22;9854;50.968;4.168;2022-09-21T06:25:33;10.10;99.90
19437;DHT22;9854;50.968;4.168;2022-09-21T06:28:10;10.00;99.90
19437;DHT22;9854;50.968;4.168;2022-09-21T06:30:36;10.10;99.90
19437;DHT22;9854;50.968;4.168;2022-09-21T06:33:04;10.10;99.90
19437;DHT22;9854;50.968;4.168;2022-09-21T06:35:33;10.40;99.90
19437;DHT22;9854;50.968;4.168;2022-09-21T06:38:04;10.50;99.90
19437;DHT22;9854;50.968;4.168;2022-09-21T06:40:31;10.70;99.90
19437;DHT22;9854;50.968;4.168;2022-09-21T06:42:58;10.70;99.90
19437;DHT22;9854;50.968;4.168;2022-09-21T06:45:26;10.60;99.90
19437;DHT22;9854;50.968;4.168;2022-09-21T06:47:51;10.80;99.90
19437;DHT22;9854;50.968;4.168;2022-09-21T06:50:17;11.10;99.90
19437;DHT22;9854;50.968;4.168;2022-09-21T06:52:43;11.10;99.90
19437;DHT22;9854;50.968;4.168;2022-09-21T06:55:09;11.00;99.90
19437;DHT22;9854;50.968;4.168;2022-09-21T06:57:35;10.70;99.90
19437;DHT22;9854;50.968;4.168;2022-09-21T07:00:06;10.70;99.90
19437;DHT22;9854;50.968;4.168;2022-09-21T07:02:33;10.70;99.90
19437;DHT22;9854;50.968;4.168;2022-09-21T07:04:59;10.80;99.90
19437;DHT22;9854;50.968;4.168;2022-09-21T07:07:26;11.10;99.90
19437;DHT22;9854;50.968;4.168;2022-09-21T07:09:54;10.80;99.90
19437;DHT22;9854;50.968;4.168;2022-09-21T07:12:20;10.80;99.90
19437;DHT22;9854;50.968;4.168;2022-09-21T07:14:46;10.70;99.90
19437;DHT22;9854;50.968;4.168;2022-09-21T07:17:12;10.80;99.90
19437;DHT22;9854;50.968;4.168;2022-09-21T07:19:39;10.90;99.90
19437;DHT22;9854;50.968;4.168;2022-09-21T07:22:05;11.10;99.90
19437;DHT22;9854;50.968;4.168;2022-09-21T07:24:30;11.30;99.90
19437;DHT22;9854;50.968;4.168;2022-09-21T07:26:56;11.30;99.90
19437;DHT22;9854;50.968;4.168;2022-09-21T07:29:22;11.20;99.90
19437;DHT22;9854;50.968;4.168;2022-09-21T07:31:48;11.20;99.90
19437;DHT22;9854;50.968;4.168;2022-09-21T07:34:13;11.30;99.90
19437;DHT22;9854;50.968;4.168;2022-09-21T07:36:39;11.30;99.90
19437;DHT22;9854;50.968;4.168;2022-09-21T07:39:05;11.30;99.90
19437;DHT22;9854;50.968;4.168;2022-09-21T07:41:30;11.50;99.90
19437;DHT22;9854;50.968;4.168;2022-09-21T07:43:56;11.50;99.90
19437;DHT22;9854;50.968;4.168;2022-09-21T07:46:22;11.60;99.90
19437;DHT22;9854;50.968;4.168;2022-09-21T07:48:47;11.80;99.90
19437;DHT22;9854;50.968;4.168;2022-09-21T07:51:14;11.90;99.90
19437;DHT22;9854;50.968;4.168;2022-09-21T07:53:43;11.90;99.90
19437;DHT22;9854;50.968;4.168;2022-09-21T07:56:14;12.10;99.90
19437;DHT22;9854;50.968;4.168;2022-09-21T07:58:40;12.10;99.90
19437;DHT22;9854;50.968;4.168;2022-09-21T08:01:25;12.20;99.90
19437;DHT22;9854;50.968;4.168;2022-09-21T08:03:53;12.40;99.90
19437;DHT22;9854;50.968;4.168;2022-09-21T08:06:19;12.50;99.90
19437;DHT22;9854;50.968;4.168;2022-09-21T08:08:46;12.70;99.90
19437;DHT22;9854;50.968;4.168;2022-09-21T08:11:16;12.80;99.90
19437;DHT22;9854;50.968;4.168;2022-09-21T08:13:42;12.90;99.90
19437;DHT22;9854;50.968;4.168;2022-09-21T08:16:08;13.00;99.90
19437;DHT22;9854;50.968;4.168;2022-09-21T08:18:38;13.10;99.90
19437;DHT22;9854;50.968;4.168;2022-09-21T08:21:05;13.10;99.90
19437;DHT22;9854;50.968;4.168;2022-09-21T08:23:31;13.20;99.90
19437;DHT22;9854;50.968;4.168;2022-09-21T08:26:01;13.20;99.90
19437;DHT22;9854;50.968;4.168;2022-09-21T08:28:28;13.50;99.90
19437;DHT22;9854;50.968;4.168;2022-09-21T08:30:59;13.60;99.90
19437;DHT22;9854;50.968;4.168;2022-09-21T08:33:25;13.70;99.90
19437;DHT22;9854;50.968;4.168;2022-09-21T08:35:56;13.70;99.90
19437;DHT22;9854;50.968;4.168;2022-09-21T08:38:22;13.80;99.90
19437;DHT22;9854;50.968;4.168;2022-09-21T08:40:48;13.90;99.90
19437;DHT22;9854;50.968;4.168;2022-09-21T08:43:37;14.10;99.90
19437;DHT22;9854;50.968;4.168;2022-09-21T08:46:31;14.10;99.90
19437;DHT22;9854;50.968;4.168;2022-09-21T08:49:07;14.20;99.90
19437;DHT22;9854;50.968;4.168;2022-09-21T08:51:39;14.30;99.90
19437;DHT22;9854;50.968;4.168;2022-09-21T08:54:18;14.40;99.90
19437;DHT22;9854;50.968;4.168;2022-09-21T08:56:45;14.50;99.90
19437;DHT22;9854;50.968;4.168;2022-09-21T08:59:12;14.70;99.90
19437;DHT22;9854;50.968;4.168;2022-09-21T09:10:36;15.10;99.90
19437;DHT22;9854;50.968;4.168;2022-09-21T09:21:13;15.40;99.90
19437;DHT22;9854;50.968;4.168;2022-09-21T09:23:48;15.60;99.90
19437;DHT22;9854;50.968;4.168;2022-09-21T09:29:19;15.90;99.90
19437;DHT22;9854;50.968;4.168;2022-09-21T09:31:47;15.80;99.90
19437;DHT22;9854;50.968;4.168;2022-09-21T09:34:31;15.90;99.90
19437;DHT22;9854;50.968;4.168;2022-09-21T09:37:09;16.00;99.90
19437;DHT22;9854;50.968;4.168;2022-09-21T09:39:35;16.00;99.90
19437;DHT22;9854;50.968;4.168;2022-09-21T09:50:21;16.40;99.90
19437;DHT22;9854;50.968;4.168;2022-09-21T09:52:51;16.60;99.90
19437;DHT22;9854;50.968;4.168;2022-09-21T09:55:22;16.60;99.90
19437;DHT22;9854;50.968;4.168;2022-09-21T09:57:49;16.70;99.90
19437;DHT22;9854;50.968;4.168;2022-09-21T10:00:18;16.90;99.90
19437;DHT22;9854;50.968;4.168;2022-09-21T10:02:53;17.00;99.90
19437;DHT22;9854;50.968;4.168;2022-09-21T10:07:50;17.20;99.90
19437;DHT22;9854;50.968;4.168;2022-09-21T10:10:30;17.30;99.90
19437;DHT22;9854;50.968;4.168;2022-09-21T10:13:30;17.30;99.90
19437;DHT22;9854;50.968;4.168;2022-09-21T10:16:02;17.60;99.90
19437;DHT22;9854;50.968;4.168;2022-09-21T10:18:32;17.60;99.90
19437;DHT22;9854;50.968;4.168;2022-09-21T10:21:08;17.70;99.90
19437;DHT22;9854;50.968;4.168;2022-09-21T10:23:35;17.50;99.90
19437;DHT22;9854;50.968;4.168;2022-09-21T10:26:08;17.60;99.90
19437;DHT22;9854;50.968;4.168;2022-09-21T10:28:35;17.70;99.90
19437;DHT22;9854;50.968;4.168;2022-09-21T10:31:16;18.00;99.90
19437;DHT22;9854;50.968;4.168;2022-09-21T10:33:48;18.20;99.90
19437;DHT22;9854;50.968;4.168;2022-09-21T10:36:36;18.40;99.90
19437;DHT22;9854;50.968;4.168;2022-09-21T10:41:37;18.20;99.90
19437;DHT22;9854;50.968;4.168;2022-09-21T10:44:03;18.40;99.90
19437;DHT22;9854;50.968;4.168;2022-09-21T10:46:33;18.60;99.90
19437;DHT22;9854;50.968;4.168;2022-09-21T10:49:01;18.60;99.90
19437;DHT22;9854;50.968;4.168;2022-09-21T10:51:29;18.50;99.90
19437;DHT22;9854;50.968;4.168;2022-09-21T10:53:55;18.60;99.90
19437;DHT22;9854;50.968;4.168;2022-09-21T10:56:22;18.50;99.90
19437;DHT22;9854;50.968;4.168;2022-09-21T10:59:20;18.70;99.90
19437;DHT22;9854;50.968;4.168;2022-09-21T11:01:49;19.10;99.90
19437;DHT22;9854;50.968;4.168;2022-09-21T11:06:53;19.00;99.90
19437;DHT22;9854;50.968;4.168;2022-09-21T11:15:03;19.00;99.90
19437;DHT22;9854;50.968;4.168;2022-09-21T11:20:26;18.80;99.90
19437;DHT22;9854;50.968;4.168;2022-09-21T11:23:10;18.40;99.90
19437;DHT22;9854;50.968;4.168;2022-09-21T11:25:45;18.60;99.90
19437;DHT22;9854;50.968;4.168;2022-09-21T11:28:32;18.80;99.90
19437;DHT22;9854;50.968;4.168;2022-09-21T11:31:18;19.00;99.90
19437;DHT22;9854;50.968;4.168;2022-09-21T11:39:19;20.40;99.90
19437;DHT22;9854;50.968;4.168;2022-09-21T11:53:00;20.20;99.90
19437;DHT22;9854;50.968;4.168;2022-09-21T11:58:37;19.00;99.90
19437;DHT22;9854;50.968;4.168;2022-09-21T12:04:14;18.60;99.90
19437;DHT22;9854;50.968;4.168;2022-09-21T12:14:54;19.20;99.90
19437;DHT22;9854;50.968;4.168;2022-09-21T12:17:43;19.60;99.90
19437;DHT22;9854;50.968;4.168;2022-09-21T12:20:29;20.00;99.90
19437;DHT22;9854;50.968;4.168;2022-09-21T12:23:02;20.20;99.90
19437;DHT22;9854;50.968;4.168;2022-09-21T12:25:36;20.50;99.90
19437;DHT22;9854;50.968;4.168;2022-09-21T12:30:57;20.90;99.90
19437;DHT22;9854;50.968;4.168;2022-09-21T12:33:43;21.00;99.90
19437;DHT22;9854;50.968;4.168;2022-09-21T12:36:38;21.40;99.90
19437;DHT22;9854;50.968;4.168;2022-09-21T12:39:18;21.70;99.90
19437;DHT22;9854;50.968;4.168;2022-09-21T12:44:50;21.80;99.90
19437;DHT22;9854;50.968;4.168;2022-09-21T12:47:26;22.10;99.90
19437;DHT22;9854;50.968;4.168;2022-09-21T12:49:58;22.20;99.90
19437;DHT22;9854;50.968;4.168;2022-09-21T12:52:27;22.10;99.90
19437;DHT22;9854;50.968;4.168;2022-09-21T13:00:20;22.40;99.90
19437;DHT22;9854;50.968;4.168;2022-09-21T13:03:02;22.50;99.90
19437;DHT22;9854;50.968;4.168;2022-09-21T13:05:39;22.40;99.90
19437;DHT22;9854;50.968;4.168;2022-09-21T13:13:30;22.10;99.90
19437;DHT22;9854;50.968;4.168;2022-09-21T13:15:57;21.80;99.90
19437;DHT22;9854;50.968;4.168;2022-09-21T13:18:33;21.80;99.90
19437;DHT22;9854;50.968;4.168;2022-09-21T13:21:19;22.10;99.90
19437;DHT22;9854;50.968;4.168;2022-09-21T13:24:01;22.70;99.90
19437;DHT22;9854;50.968;4.168;2022-09-21T13:26:40;23.00;99.90
19437;DHT22;9854;50.968;4.168;2022-09-21T13:34:42;23.60;99.90
19437;DHT22;9854;50.968;4.168;2022-09-21T13:39:44;23.70;99.90
19437;DHT22;9854;50.968;4.168;2022-09-21T13:47:39;23.90;99.90
19437;DHT22;9854;50.968;4.168;2022-09-21T13:53:05;24.40;99.90
19437;DHT22;9854;50.968;4.168;2022-09-21T13:55:39;24.30;99.90
19437;DHT22;9854;50.968;4.168;2022-09-21T13:58:26;24.30;99.90
19437;DHT22;9854;50.968;4.168;2022-09-21T14:03:40;24.10;99.90
19437;DHT22;9854;50.968;4.168;2022-09-21T14:06:41;23.80;99.90
19437;DHT22;9854;50.968;4.168;2022-09-21T14:09:28;23.50;99.90
19437;DHT22;9854;50.968;4.168;2022-09-21T14:11:58;23.30;99.90
19437;DHT22;9854;50.968;4.168;2022-09-21T14:14:32;23.00;99.90
19437;DHT22;9854;50.968;4.168;2022-09-21T14:16:59;22.90;99.90
19437;DHT22;9854;50.968;4.168;2022-09-21T14:25:26;22.60;99.90
19437;DHT22;9854;50.968;4.168;2022-09-21T14:27:53;22.50;99.90
19437;DHT22;9854;50.968;4.168;2022-09-21T14:30:28;22.90;99.90
19437;DHT22;9854;50.968;4.168;2022-09-21T14:35:26;23.20;99.90
19437;DHT22;9854;50.968;4.168;2022-09-21T14:38:01;23.20;99.90
19437;DHT22;9854;50.968;4.168;2022-09-21T14:40:35;23.10;99.90
19437;DHT22;9854;50.968;4.168;2022-09-21T14:43:07;23.00;99.90
19437;DHT22;9854;50.968;4.168;2022-09-21T14:57:36;23.70;99.90
19437;DHT22;9854;50.968;4.168;2022-09-21T15:00:20;23.80;99.90
19437;DHT22;9854;50.968;4.168;2022-09-21T15:05:42;24.10;99.90
19437;DHT22;9854;50.968;4.168;2022-09-21T15:11:32;24.60;99.90
19437;DHT22;9854;50.968;4.168;2022-09-21T15:16:49;24.80;99.90
19437;DHT22;9854;50.968;4.168;2022-09-21T15:19:27;24.70;99.90
19437;DHT22;9854;50.968;4.168;2022-09-21T15:22:14;24.90;99.90
19437;DHT22;9854;50.968;4.168;2022-09-21T15:24:52;25.20;99.90
19437;DHT22;9854;50.968;4.168;2022-09-21T15:27:20;25.30;99.90
19437;DHT22;9854;50.968;4.168;2022-09-21T15:29:49;25.70;99.90
19437;DHT22;9854;50.968;4.168;2022-09-21T15:37:40;26.30;99.90
19437;DHT22;9854;50.968;4.168;2022-09-21T15:40:21;25.90;99.90
19437;DHT22;9854;50.968;4.168;2022-09-21T15:45:47;25.30;99.90
19437;DHT22;9854;50.968;4.168;2022-09-21T15:48:16;25.20;99.90
19437;DHT22;9854;50.968;4.168;2022-09-21T15:50:47;25.20;99.90
19437;DHT22;9854;50.968;4.168;2022-09-21T15:53:19;25.30;99.90
19437;DHT22;9854;50.968;4.168;2022-09-21T15:55:47;25.00;99.90
19437;DHT22;9854;50.968;4.168;2022-09-21T15:58:36;24.70;99.90
19437;DHT22;9854;50.968;4.168;2022-09-21T16:03:35;24.00;99.90
19437;DHT22;9854;50.968;4.168;2022-09-21T16:08:42;23.30;99.90
19437;DHT22;9854;50.968;4.168;2022-09-21T16:14:17;23.00;99.90
19437;DHT22;9854;50.968;4.168;2022-09-21T16:20:03;22.10;99.90
19437;DHT22;9854;50.968;4.168;2022-09-21T16:22:40;21.90;99.90
19437;DHT22;9854;50.968;4.168;2022-09-21T16:25:27;21.70;99.90
19437;DHT22;9854;50.968;4.168;2022-09-21T16:27:59;21.40;99.90
19437;DHT22;9854;50.968;4.168;2022-09-21T16:30:52;21.10;99.90
19437;DHT22;9854;50.968;4.168;2022-09-21T16:33:36;20.90;99.90
19437;DHT22;9854;50.968;4.168;2022-09-21T16:36:32;21.00;99.90
19437;DHT22;9854;50.968;4.168;2022-09-21T16:38:57;20.90;99.90
19437;DHT22;9854;50.968;4.168;2022-09-21T16:41:32;20.80;99.90
19437;DHT22;9854;50.968;4.168;2022-09-21T16:43:59;20.80;99.90
19437;DHT22;9854;50.968;4.168;2022-09-21T16:46:25;20.80;99.90
19437;DHT22;9854;50.968;4.168;2022-09-21T16:48:52;20.60;99.90
19437;DHT22;9854;50.968;4.168;2022-09-21T16:51:20;20.40;99.90
19437;DHT22;9854;50.968;4.168;2022-09-21T16:53:49;20.20;99.90
19437;DHT22;9854;50.968;4.168;2022-09-21T16:56:15;20.30;99.90
19437;DHT22;9854;50.968;4.168;2022-09-21T16:58:42;20.30;99.90
19437;DHT22;9854;50.968;4.168;2022-09-21T17:01:14;20.30;99.90
19437;DHT22;9854;50.968;4.168;2022-09-21T17:03:40;20.20;99.90
19437;DHT22;9854;50.968;4.168;2022-09-21T17:06:16;20.10;99.90
19437;DHT22;9854;50.968;4.168;2022-09-21T17:08:43;20.00;99.90
19437;DHT22;9854;50.968;4.168;2022-09-21T17:11:08;19.90;99.90
19437;DHT22;9854;50.968;4.168;2022-09-21T17:13:34;19.70;99.90
19437;DHT22;9854;50.968;4.168;2022-09-21T17:16:00;19.70;99.90
19437;DHT22;9854;50.968;4.168;2022-09-21T17:18:26;19.60;99.90
19437;DHT22;9854;50.968;4.168;2022-09-21T17:20:52;19.60;99.90
19437;DHT22;9854;50.968;4.168;2022-09-21T17:23:17;19.60;99.90
19437;DHT22;9854;50.968;4.168;2022-09-21T17:25:43;19.40;99.90
19437;DHT22;9854;50.968;4.168;2022-09-21T17:28:16;19.30;99.90
19437;DHT22;9854;50.968;4.168;2022-09-21T17:30:43;19.40;99.90
19437;DHT22;9854;50.968;4.168;2022-09-21T17:33:10;19.50;99.90
19437;DHT22;9854;50.968;4.168;2022-09-21T17:35:38;19.70;99.90
19437;DHT22;9854;50.968;4.168;2022-09-21T17:38:05;19.30;99.90
19437;DHT22;9854;50.968;4.168;2022-09-21T17:40:33;18.80;99.90
19437;DHT22;9854;50.968;4.168;2022-09-21T17:46:02;18.10;99.90
19437;DHT22;9854;50.968;4.168;2022-09-21T17:48:29;17.80;99.90
19437;DHT22;9854;50.968;4.168;2022-09-21T17:50:55;17.70;99.90
19437;DHT22;9854;50.968;4.168;2022-09-21T17:53:21;17.70;99.90
19437;DHT22;9854;50.968;4.168;2022-09-21T17:58:43;17.30;99.90
19437;DHT22;9854;50.968;4.168;2022-09-21T18:01:36;17.30;99.90
19437;DHT22;9854;50.968;4.168;2022-09-21T18:04:04;17.50;99.90
19437;DHT22;9854;50.968;4.168;2022-09-21T18:06:32;17.30;99.90
19437;DHT22;9854;50.968;4.168;2022-09-21T18:08:59;17.10;99.90
19437;DHT22;9854;50.968;4.168;2022-09-21T18:11:54;17.20;99.90
19437;DHT22;9854;50.968;4.168;2022-09-21T18:20:26;17.00;99.90
19437;DHT22;9854;50.968;4.168;2022-09-21T18:25:34;16.90;99.90
19437;DHT22;9854;50.968;4.168;2022-09-21T18:28:11;16.70;99.90
19437;DHT22;9854;50.968;4.168;2022-09-21T18:30:45;16.30;99.90
19437;DHT22;9854;50.968;4.168;2022-09-21T18:36:25;15.70;99.90
19437;DHT22;9854;50.968;4.168;2022-09-21T18:44:52;15.50;99.90
19437;DHT22;9854;50.968;4.168;2022-09-21T18:47:29;15.70;99.90
19437;DHT22;9854;50.968;4.168;2022-09-21T18:50:09;15.70;99.90
19437;DHT22;9854;50.968;4.168;2022-09-21T18:52:46;16.10;99.90
19437;DHT22;9854;50.968;4.168;2022-09-21T18:55:23;16.30;99.90
19437;DHT22;9854;50.968;4.168;2022-09-21T18:57:54;16.20;99.90
19437;DHT22;9854;50.968;4.168;2022-09-21T19:00:20;15.90;99.90
19437;DHT22;9854;50.968;4.168;2022-09-21T19:02:46;15.90;99.90
19437;DHT22;9854;50.968;4.168;2022-09-21T19:05:12;15.70;99.90
19437;DHT22;9854;50.968;4.168;2022-09-21T19:10:43;15.00;99.90
19437;DHT22;9854;50.968;4.168;2022-09-21T19:16:21;14.80;99.90
19437;DHT22;9854;50.968;4.168;2022-09-21T19:24:28;14.70;99.90
19437;DHT22;9854;50.968;4.168;2022-09-21T19:27:16;14.70;99.90
19437;DHT22;9854;50.968;4.168;2022-09-21T19:32:52;14.60;99.90
19437;DHT22;9854;50.968;4.168;2022-09-21T19:37:50;15.00;99.90
19437;DHT22;9854;50.968;4.168;2022-09-21T19:40:18;15.20;99.90
19437;DHT22;9854;50.968;4.168;2022-09-21T19:48:47;15.30;99.90
19437;DHT22;9854;50.968;4.168;2022-09-21T19:53:56;15.10;99.90
19437;DHT22;9854;50.968;4.168;2022-09-21T19:56:49;15.10;99.90
19437;DHT22;9854;50.968;4.168;2022-09-21T19:59:33;15.10;99.90
19437;DHT22;9854;50.968;4.168;2022-09-21T20:02:14;15.00;99.90
19437;DHT22;9854;50.968;4.168;2022-09-21T20:04:55;14.50;99.90
19437;DHT22;9854;50.968;4.168;2022-09-21T20:07:27;14.30;99.90
19437;DHT22;9854;50.968;4.168;2022-09-21T20:10:33;14.10;99.90
19437;DHT22;9854;50.968;4.168;2022-09-21T20:15:58;13.90;99.90
19437;DHT22;9854;50.968;4.168;2022-09-21T20:18:56;13.90;99.90
19437;DHT22;9854;50.968;4.168;2022-09-21T20:21:34;13.80;99.90
19437;DHT22;9854;50.968;4.168;2022-09-21T20:24:05;13.70;99.90
19437;DHT22;9854;50.968;4.168;2022-09-21T20:26:36;13.60;99.90